Idrinskoe, Russia
Current Conditions -  °F | °C
As of 9:30 PM on Sunday 23 Nov 2014 (Local Time) from UNAA Reporting Station
Clear Clear  
Wind Chill: 16°   Ceiling: Unl
Heat Index: 27°   Visibility: 6mi
Dew Point: 12°   Wind: 11mph
Humidity: 55%   Direction: 190°S
Pressure: 29.77"   Gusts: NA
Location:  54.37°N, 92.13°E
Report Text: UNAA 231430Z 19005MPS CAVOK M03/M11 Q1008 NOSIG RMK QFE73420190055
Loading
Personal Weather Stations






























Interactive Weather Map New forecast layout! Learn more

10-Day Weather Forecast

Advertisements
Track Severe Weather on mobile